createdAt,value
2019-01-19T00:01:44.457Z,71.15
2019-01-19T00:04:42.217Z,70.29
2019-01-19T00:07:38.926Z,69.52
2019-01-19T00:10:40.067Z,69.23
2019-01-19T00:13:29.754Z,69.88
2019-01-19T00:16:32.436Z,71.46
2019-01-19T00:19:52.050Z,71.10
2019-01-19T00:22:31.818Z,69.87
2019-01-19T00:25:37.522Z,70.29
2019-01-19T00:28:23.620Z,69.66
2019-01-19T00:31:15.868Z,69.07
2019-01-19T00:34:10.693Z,69.78
2019-01-19T00:36:44.894Z,69.80
2019-01-19T00:39:59.341Z,69.93
2019-01-19T00:42:36.174Z,71.01
2019-01-19T00:45:35.456Z,71.36
2019-01-19T00:48:21.738Z,70.35
2019-01-19T00:50:59.082Z,70.67
2019-01-19T00:53:44.699Z,70.79
2019-01-19T00:56:27.920Z,69.82
2019-01-19T00:59:13.876Z,71.30
2019-01-19T01:02:04.412Z,72.05
2019-01-19T01:05:00.315Z,72.39
2019-01-19T01:07:59.142Z,72.31
2019-01-19T01:10:45.410Z,72.84
2019-01-19T01:13:28.445Z,72.76
2019-01-19T01:16:35.530Z,72.58
2019-01-19T01:19:15.161Z,72.00
2019-01-19T01:22:27.203Z,72.80
2019-01-19T01:25:01.474Z,72.16
2019-01-19T01:27:59.359Z,72.72
2019-01-19T01:30:44.951Z,72.96
2019-01-19T01:33:46.118Z,74.07
2019-01-19T01:36:41.494Z,73.19
2019-01-19T01:39:25.155Z,73.51
2019-01-19T01:42:26.430Z,73.40
2019-01-19T01:45:12.045Z,72.84
2019-01-19T01:48:03.703Z,74.28
2019-01-19T01:50:52.648Z,73.79
2019-01-19T01:53:50.589Z,74.08
2019-01-19T01:56:20.129Z,74.03
2019-01-19T01:59:09.043Z,73.86
2019-01-19T02:01:55.747Z,73.80
2019-01-19T02:04:38.825Z,73.23
2019-01-19T02:07:27.960Z,73.56
2019-01-19T02:10:21.773Z,72.98
2019-01-19T02:13:21.776Z,72.20
2019-01-19T02:16:18.156Z,71.81
2019-01-19T02:19:23.741Z,72.36
2019-01-19T02:21:58.184Z,72.48
2019-01-19T02:24:53.602Z,72.96
2019-01-19T02:27:39.435Z,73.58
2019-01-19T02:30:34.648Z,73.54
2019-01-19T02:33:11.692Z,73.02
2019-01-19T02:36:02.167Z,73.35
2019-01-19T02:38:41.871Z,73.64
2019-01-19T02:41:24.743Z,73.45
2019-01-19T02:44:22.973Z,72.99
2019-01-19T02:47:21.618Z,73.42
2019-01-19T02:50:17.754Z,73.69
2019-01-19T02:53:21.791Z,74.09
2019-01-19T02:55:59.109Z,74.13
2019-01-19T02:58:36.239Z,74.35
2019-01-19T03:01:42.515Z,74.14
2019-01-19T03:04:19.697Z,73.61
2019-01-19T03:07:08.997Z,73.14
2019-01-19T03:10:05.225Z,73.20
2019-01-19T03:13:07.995Z,73.37
2019-01-19T03:16:09.107Z,73.12
2019-01-19T03:18:52.211Z,73.44
2019-01-19T03:21:50.651Z,73.73
2019-01-19T03:25:03.729Z,73.66
2019-01-19T03:28:00.726Z,72.94
2019-01-19T03:30:55.369Z,73.37
2019-01-19T03:33:35.366Z,72.89
2019-01-19T03:39:42.394Z,72.44
2019-01-19T03:42:36.743Z,72.38
2019-01-19T03:45:38.068Z,72.27
2019-01-19T03:48:23.323Z,72.15
2019-01-19T03:51:25.697Z,71.82
2019-01-19T03:54:02.598Z,71.85
2019-01-19T03:56:39.603Z,71.81
2019-01-19T03:59:13.798Z,72.08
2019-01-19T04:01:56.910Z,71.87
2019-01-19T04:04:52.028Z,71.41
2019-01-19T04:07:46.821Z,71.58
2019-01-19T04:10:32.841Z,71.92
2019-01-19T04:13:18.871Z,72.95
2019-01-19T04:16:01.870Z,73.06
2019-01-19T04:19:08.077Z,73.66
2019-01-19T04:21:45.083Z,73.82
2019-01-19T04:24:24.854Z,73.56
2019-01-19T04:26:54.392Z,73.92
2019-01-19T04:29:23.874Z,74.01
2019-01-19T04:31:53.439Z,74.26
2019-01-19T04:34:23.591Z,74.45
2019-01-19T04:36:53.553Z,73.80
2019-01-19T04:39:42.415Z,74.63
2019-01-19T04:42:12.383Z,73.87
2019-01-19T04:44:41.871Z,73.89
2019-01-19T04:47:11.742Z,73.58
2019-01-19T04:49:41.199Z,73.42
2019-01-19T04:52:10.717Z,73.79
2019-01-19T04:54:40.188Z,73.38
2019-01-19T04:57:09.714Z,73.35
2019-01-19T04:59:39.293Z,73.91
2019-01-19T05:02:08.834Z,74.36
2019-01-19T05:04:38.280Z,74.46
2019-01-19T05:07:07.750Z,74.65
2019-01-19T05:09:37.615Z,74.71
2019-01-19T05:12:07.106Z,74.84
2019-01-19T05:14:36.616Z,74.73
2019-01-19T05:17:06.134Z,75.48
2019-01-19T05:19:35.598Z,75.44
2019-01-19T05:22:05.086Z,75.53
2019-01-19T05:24:34.608Z,75.92
2019-01-19T05:27:04.116Z,76.10
2019-01-19T05:29:33.628Z,76.01
2019-01-19T05:32:03.194Z,76.74
2019-01-19T05:34:32.655Z,76.74
2019-01-19T05:37:02.130Z,76.73
2019-01-19T05:39:31.652Z,76.24
2019-01-19T05:42:01.107Z,76.65
2019-01-19T05:44:30.594Z,77.36
2019-01-19T05:47:00.100Z,77.04
2019-01-19T05:49:29.578Z,76.79
2019-01-19T05:51:59.094Z,76.52
2019-01-19T05:54:29.215Z,76.06
2019-01-19T05:56:58.713Z,76.25
2019-01-19T05:59:28.205Z,77.15
2019-01-19T06:01:58.310Z,76.96
2019-01-19T06:04:27.778Z,76.63
2019-01-19T06:06:57.262Z,76.32
2019-01-19T06:09:26.858Z,76.72
2019-01-19T06:11:56.360Z,77.06
2019-01-19T06:14:25.870Z,76.77
2019-01-19T06:16:55.810Z,76.90
2019-01-19T06:19:25.794Z,75.72
2019-01-19T06:21:57.156Z,75.55
2019-01-19T06:24:26.682Z,75.44
2019-01-19T06:26:56.135Z,76.54
2019-01-19T06:29:25.648Z,76.54
2019-01-19T06:31:55.264Z,76.55
2019-01-19T06:34:24.737Z,76.80
2019-01-19T06:36:55.135Z,76.87
2019-01-19T06:39:25.253Z,76.56
2019-01-19T06:41:54.725Z,76.32
2019-01-19T06:44:24.218Z,76.61
2019-01-19T06:46:53.768Z,76.62
2019-01-19T06:49:23.270Z,76.23
2019-01-19T06:51:52.747Z,76.39
2019-01-19T06:54:22.448Z,75.81
2019-01-19T06:56:51.937Z,75.92
2019-01-19T06:59:21.453Z,76.20
2019-01-19T07:01:51.047Z,76.38
2019-01-19T07:04:20.977Z,75.98
2019-01-19T07:06:50.491Z,76.39
2019-01-19T07:09:20.022Z,76.43
2019-01-19T07:11:49.978Z,76.63
2019-01-19T07:14:19.512Z,76.98
2019-01-19T07:16:49.086Z,76.32
2019-01-19T07:19:18.613Z,75.91
2019-01-19T07:21:48.089Z,75.84
2019-01-19T07:24:18.242Z,76.32
2019-01-19T07:26:47.739Z,75.92
2019-01-19T07:29:17.255Z,76.11
2019-01-19T07:31:46.774Z,75.96
2019-01-19T07:34:16.305Z,75.62
2019-01-19T07:36:45.768Z,74.60
2019-01-19T07:39:15.291Z,75.43
2019-01-19T07:41:44.767Z,75.87
2019-01-19T07:44:14.283Z,75.50
2019-01-19T07:46:44.213Z,75.41
2019-01-19T07:49:13.696Z,73.88
2019-01-19T07:51:43.210Z,72.53
2019-01-19T07:54:12.706Z,71.31
2019-01-19T07:56:42.215Z,70.53
2019-01-19T07:59:11.684Z,69.98
2019-01-19T08:01:41.191Z,67.77
2019-01-19T08:04:10.660Z,64.24
2019-01-19T08:06:40.203Z,60.61
2019-01-19T08:09:09.839Z,59.56
2019-01-19T08:11:39.310Z,57.71
2019-01-19T08:14:08.782Z,57.95
2019-01-19T08:16:38.331Z,54.59
2019-01-19T08:19:07.827Z,51.70
2019-01-19T08:21:37.332Z,50.33
2019-01-19T08:24:06.877Z,48.83
2019-01-19T08:26:36.387Z,49.38
2019-01-19T08:29:05.877Z,48.67
2019-01-19T08:31:35.656Z,46.23
2019-01-19T08:34:05.215Z,45.78
2019-01-19T08:36:34.886Z,43.40
2019-01-19T08:39:06.645Z,44.25
2019-01-19T08:41:36.115Z,45.17
2019-01-19T08:44:05.758Z,43.48
2019-01-19T08:46:35.292Z,41.53
2019-01-19T08:49:04.825Z,43.24
2019-01-19T08:51:34.295Z,43.80
2019-01-19T08:54:03.923Z,42.62
2019-01-19T08:56:33.415Z,43.85
2019-01-19T08:59:02.892Z,43.39
2019-01-19T09:01:32.490Z,42.01
2019-01-19T09:04:01.985Z,41.60
2019-01-19T09:06:31.596Z,39.69
2019-01-19T09:09:01.174Z,39.34
2019-01-19T09:11:30.677Z,37.98
2019-01-19T09:14:00.144Z,36.98
2019-01-19T09:16:30.059Z,37.48
2019-01-19T09:18:59.555Z,37.60
2019-01-19T09:21:29.146Z,38.00
2019-01-19T09:23:59.784Z,35.74
2019-01-19T09:26:29.297Z,35.93
2019-01-19T09:28:58.813Z,36.47
2019-01-19T09:31:28.345Z,36.98
2019-01-19T09:33:57.825Z,36.73
2019-01-19T09:36:27.460Z,34.62
2019-01-19T09:38:57.437Z,33.55
2019-01-19T09:41:26.935Z,35.36
2019-01-19T09:43:56.448Z,33.77
2019-01-19T09:46:25.972Z,33.95
2019-01-19T09:48:55.549Z,34.27
2019-01-19T09:51:25.027Z,34.93
2019-01-19T09:53:54.519Z,33.54
2019-01-19T09:56:24.008Z,35.32
2019-01-19T09:58:53.496Z,33.59
2019-01-19T10:01:23.248Z,31.73
2019-01-19T10:03:52.785Z,33.04
2019-01-19T10:06:22.275Z,32.94
2019-01-19T10:08:52.095Z,32.02
2019-01-19T10:11:21.612Z,30.81
2019-01-19T10:13:51.285Z,29.62
2019-01-19T10:16:20.927Z,28.84
2019-01-19T10:18:50.471Z,28.85
2019-01-19T10:21:20.325Z,28.24
2019-01-19T10:23:50.483Z,27.71
2019-01-19T10:26:19.947Z,25.40
2019-01-19T10:28:50.339Z,25.20
2019-01-19T10:31:19.858Z,26.02
2019-01-19T10:33:49.350Z,24.95
2019-01-19T10:36:18.856Z,26.14
2019-01-19T10:38:48.440Z,24.81
2019-01-19T10:41:17.961Z,24.00
2019-01-19T10:43:47.467Z,25.39
2019-01-19T10:46:17.047Z,25.96
2019-01-19T10:48:46.503Z,27.47
2019-01-19T10:51:15.986Z,30.67
2019-01-19T10:53:45.496Z,32.92
2019-01-19T10:56:14.963Z,36.38
2019-01-19T10:58:44.463Z,39.82
2019-01-19T11:01:13.966Z,40.77
2019-01-19T11:03:43.471Z,38.25
2019-01-19T11:06:12.949Z,32.29
2019-01-19T11:08:42.615Z,29.36
2019-01-19T11:11:12.139Z,26.35
2019-01-19T11:13:41.646Z,26.54
2019-01-19T11:16:11.163Z,27.96
2019-01-19T11:18:40.673Z,30.11
2019-01-19T11:21:10.182Z,29.43
2019-01-19T11:23:40.092Z,28.95
2019-01-19T11:26:09.870Z,27.61
2019-01-19T11:28:39.352Z,26.68
2019-01-19T11:31:09.045Z,25.30
2019-01-19T11:33:38.541Z,22.93
2019-01-19T11:36:08.050Z,24.77
2019-01-19T11:38:37.581Z,25.56
2019-01-19T11:41:07.057Z,23.51
2019-01-19T11:43:36.556Z,22.99
2019-01-19T11:46:06.452Z,22.70
2019-01-19T11:48:36.089Z,23.58
2019-01-19T11:51:05.660Z,23.51
2019-01-19T11:53:35.292Z,24.59
2019-01-19T11:56:11.931Z,24.60
2019-01-19T11:58:36.126Z,23.70
2019-01-19T12:01:07.314Z,23.95
2019-01-19T12:03:37.106Z,23.90
2019-01-19T12:06:06.705Z,23.86
2019-01-19T12:08:36.621Z,23.73
2019-01-19T12:11:06.306Z,23.92
2019-01-19T12:13:35.867Z,25.12
2019-01-19T12:16:05.554Z,26.59
2019-01-19T12:18:35.080Z,27.94
2019-01-19T12:21:04.642Z,28.75
2019-01-19T12:23:34.341Z,30.08
2019-01-19T12:26:03.824Z,28.92
2019-01-19T12:28:33.322Z,30.16
2019-01-19T12:31:03.178Z,30.24
2019-01-19T12:33:32.681Z,31.92
2019-01-19T12:36:02.181Z,32.08
2019-01-19T12:38:31.724Z,32.99
2019-01-19T12:41:01.218Z,32.46
2019-01-19T12:43:30.689Z,31.76
2019-01-19T12:46:00.313Z,31.19
2019-01-19T12:48:30.062Z,31.12
2019-01-19T12:50:59.671Z,31.10
2019-01-19T12:53:30.175Z,29.16
2019-01-19T12:55:59.656Z,29.45
2019-01-19T12:58:29.159Z,31.75
2019-01-19T13:00:58.778Z,31.48
2019-01-19T13:03:28.263Z,32.31
2019-01-19T13:06:08.582Z,31.18
2019-01-19T13:08:38.116Z,31.89
2019-01-19T13:11:42.596Z,31.15
2019-01-19T13:14:12.085Z,29.85
2019-01-19T13:17:05.543Z,29.06
2019-01-19T13:19:54.022Z,30.51
2019-01-19T13:22:37.193Z,32.67
2019-01-19T13:25:16.901Z,31.82
2019-01-19T13:28:14.853Z,30.71
2019-01-19T13:31:03.708Z,31.19
2019-01-19T13:33:57.499Z,32.12
2019-01-19T13:36:55.448Z,32.60
2019-01-19T13:39:29.729Z,34.89
2019-01-19T13:42:23.335Z,34.31
2019-01-19T13:45:34.081Z,33.46
2019-01-19T13:48:33.936Z,34.32
2019-01-19T13:51:20.019Z,33.25
2019-01-19T13:54:00.153Z,34.42
2019-01-19T13:57:02.256Z,34.73
2019-01-19T14:00:02.863Z,35.62
2019-01-19T14:03:26.149Z,36.04
2019-01-19T14:06:03.136Z,36.18
2019-01-19T14:09:02.873Z,37.27
2019-01-19T14:12:04.387Z,35.93
2019-01-19T14:14:44.195Z,34.71
2019-01-19T14:17:27.416Z,35.61
2019-01-19T14:20:19.741Z,36.34
2019-01-19T14:23:22.561Z,35.44
2019-01-19T14:26:28.126Z,35.01
2019-01-19T14:29:30.956Z,36.00
2019-01-19T14:32:20.198Z,37.84
2019-01-19T14:35:15.410Z,39.50
2019-01-19T14:38:24.351Z,39.42
2019-01-19T14:41:16.474Z,41.94
2019-01-19T14:44:10.972Z,42.40
2019-01-19T14:47:00.222Z,42.13
2019-01-19T14:49:46.026Z,43.33
2019-01-19T14:52:23.500Z,43.74
2019-01-19T14:55:00.358Z,45.41
2019-01-19T14:57:43.094Z,47.24
2019-01-19T15:00:38.521Z,48.44
2019-01-19T15:03:20.904Z,49.14
2019-01-19T15:06:12.738Z,50.29
2019-01-19T15:09:09.423Z,49.96
2019-01-19T15:12:26.033Z,51.16
2019-01-19T15:15:06.079Z,51.93
2019-01-19T15:17:54.941Z,52.88
2019-01-19T15:20:37.610Z,53.07
2019-01-19T15:23:18.280Z,53.19
2019-01-19T15:26:09.843Z,53.67
2019-01-19T15:29:13.404Z,54.14
2019-01-19T15:32:15.547Z,54.49
2019-01-19T15:35:21.181Z,56.17
2019-01-19T15:38:10.217Z,56.61
2019-01-19T15:40:59.510Z,57.75
2019-01-19T15:44:08.388Z,58.32
2019-01-19T15:47:05.706Z,59.33
2019-01-19T15:50:03.123Z,58.94
2019-01-19T15:52:51.996Z,59.26
2019-01-19T15:55:38.665Z,59.93
2019-01-19T15:58:43.131Z,60.53
2019-01-19T16:01:57.731Z,60.68
2019-01-19T16:05:02.193Z,60.95
2019-01-19T16:07:44.599Z,61.53
2019-01-19T16:10:47.040Z,61.80
2019-01-19T16:13:23.673Z,62.25
2019-01-19T16:16:33.397Z,62.86
2019-01-19T16:19:25.078Z,62.88
2019-01-19T16:22:38.629Z,63.23
2019-01-19T16:25:21.453Z,62.80
2019-01-19T16:28:25.907Z,63.39
2019-01-19T16:31:30.177Z,63.38
2019-01-19T16:34:40.263Z,63.22
2019-01-19T16:37:33.376Z,63.46
2019-01-19T16:40:22.876Z,64.82
2019-01-19T16:42:57.618Z,65.45
2019-01-19T16:45:55.097Z,63.83
2019-01-19T16:48:49.924Z,63.43
2019-01-19T16:51:47.015Z,63.64
2019-01-19T16:54:27.306Z,63.88
2019-01-19T16:57:23.637Z,63.95
2019-01-19T17:00:07.848Z,65.05
2019-01-19T17:02:56.956Z,65.59
2019-01-19T17:05:50.035Z,64.97
2019-01-19T17:08:36.024Z,65.82
2019-01-19T17:11:27.819Z,66.64
2019-01-19T17:14:29.561Z,67.09
2019-01-19T17:17:40.000Z,67.32
2019-01-19T17:20:25.916Z,67.53
2019-01-19T17:23:20.860Z,67.51
2019-01-19T17:26:17.569Z,68.50
2019-01-19T17:29:09.801Z,68.20
2019-01-19T17:31:49.351Z,69.31
2019-01-19T17:34:40.660Z,68.87
2019-01-19T17:37:23.543Z,68.30
2019-01-19T17:40:27.024Z,68.80
2019-01-19T17:43:07.075Z,68.20
2019-01-19T17:46:01.905Z,69.46
2019-01-19T17:48:51.389Z,69.19
2019-01-19T17:51:43.341Z,69.93
2019-01-19T17:54:47.618Z,69.58
2019-01-19T17:57:41.011Z,70.38
2019-01-19T18:00:17.941Z,70.56
2019-01-19T18:03:03.778Z,70.72
2019-01-19T18:05:44.043Z,70.38
2019-01-19T18:08:29.227Z,69.51
2019-01-19T18:11:20.218Z,69.67
2019-01-19T18:14:09.337Z,69.61
2019-01-19T18:17:19.755Z,70.16
2019-01-19T18:20:40.559Z,69.79
2019-01-19T18:23:30.121Z,69.67
2019-01-19T18:26:21.019Z,69.91
2019-01-19T18:29:28.821Z,70.14
2019-01-19T18:32:11.867Z,70.34
2019-01-19T18:35:01.244Z,70.24
2019-01-19T18:37:35.455Z,70.41
2019-01-19T18:40:32.394Z,69.90
2019-01-19T18:43:36.112Z,68.90
2019-01-19T18:46:15.906Z,70.03
2019-01-19T18:49:26.069Z,70.00
2019-01-19T18:52:12.400Z,69.99
2019-01-19T18:55:13.338Z,70.38
2019-01-19T18:58:19.682Z,70.44
2019-01-19T19:01:12.922Z,70.62
2019-01-19T19:04:01.669Z,70.72
2019-01-19T19:07:29.706Z,70.19
2019-01-19T19:10:32.419Z,71.42
2019-01-19T19:13:18.490Z,71.85
2019-01-19T19:16:19.011Z,71.28
2019-01-19T19:19:21.909Z,70.70
2019-01-19T19:22:16.717Z,71.20
2019-01-19T19:25:22.728Z,70.75
2019-01-19T19:28:23.827Z,70.57
2019-01-19T19:31:12.754Z,70.07
2019-01-19T19:33:56.274Z,70.21
2019-01-19T19:36:44.981Z,70.53
2019-01-19T19:39:36.640Z,70.24
2019-01-19T19:42:28.435Z,70.24
2019-01-19T19:45:17.535Z,70.28
2019-01-19T19:48:23.638Z,70.61
2019-01-19T19:51:35.918Z,69.93
2019-01-19T19:54:06.922Z,70.13
2019-01-19T19:56:35.247Z,71.07
2019-01-19T19:59:04.989Z,71.40
2019-01-19T20:01:34.490Z,70.78
2019-01-19T20:04:04.141Z,70.64
2019-01-19T20:06:33.664Z,70.33
2019-01-19T20:09:03.437Z,69.94
2019-01-19T20:11:33.597Z,70.30
2019-01-19T20:14:03.619Z,69.92
2019-01-19T20:16:33.125Z,70.00
2019-01-19T20:19:04.513Z,70.06
2019-01-19T20:21:34.033Z,70.02
2019-01-19T20:24:03.775Z,70.36
2019-01-19T20:26:33.267Z,69.97
2019-01-19T20:29:02.928Z,70.74
2019-01-19T20:31:32.419Z,70.36
2019-01-19T20:34:02.375Z,70.86
2019-01-19T20:36:32.031Z,71.08
2019-01-19T20:39:01.615Z,70.30
2019-01-19T20:41:31.113Z,70.72
2019-01-19T20:44:00.816Z,70.61
2019-01-19T20:46:30.595Z,70.51
2019-01-19T20:49:00.073Z,70.14
2019-01-19T20:51:29.634Z,70.13
2019-01-19T20:53:59.199Z,71.39
2019-01-19T20:56:28.655Z,71.55
2019-01-19T20:58:58.425Z,71.14
2019-01-19T21:01:27.933Z,71.59
2019-01-19T21:03:57.403Z,71.83
2019-01-19T21:06:26.994Z,71.50
2019-01-19T21:08:56.510Z,71.03
2019-01-19T21:11:25.971Z,70.76
2019-01-19T21:13:55.477Z,71.43
2019-01-19T21:16:24.933Z,71.17
2019-01-19T21:18:54.611Z,71.31
2019-01-19T21:21:24.329Z,72.15
2019-01-19T21:23:56.990Z,72.39
2019-01-19T21:26:26.459Z,73.10
2019-01-19T21:28:55.972Z,73.26
2019-01-19T21:31:25.437Z,73.19
2019-01-19T21:33:55.055Z,73.80
2019-01-19T21:36:24.589Z,73.75
2019-01-19T21:38:54.081Z,73.94
2019-01-19T21:41:23.570Z,73.22
2019-01-19T21:43:53.594Z,72.84
2019-01-19T21:46:23.128Z,72.70
2019-01-19T21:48:52.605Z,72.81
2019-01-19T21:51:22.145Z,72.35
2019-01-19T21:53:51.628Z,72.13
2019-01-19T21:56:21.105Z,73.52
2019-01-19T21:58:50.660Z,72.89
2019-01-19T22:01:20.147Z,73.33
2019-01-19T22:03:50.144Z,73.36
2019-01-19T22:06:19.784Z,73.37
2019-01-19T22:08:49.269Z,74.24
2019-01-19T22:11:18.771Z,73.47
2019-01-19T22:13:48.276Z,73.75
2019-01-19T22:16:17.774Z,73.56
2019-01-19T22:18:47.245Z,73.79
2019-01-19T22:21:16.812Z,74.75
2019-01-19T22:23:46.291Z,74.25
2019-01-19T22:26:17.443Z,73.96
2019-01-19T22:28:47.569Z,73.53
2019-01-19T22:31:17.048Z,73.68
2019-01-19T22:33:46.533Z,73.45
2019-01-19T22:36:16.047Z,72.72
2019-01-19T22:38:45.542Z,73.00
2019-01-19T22:41:15.031Z,73.10
2019-01-19T22:43:44.545Z,73.16
2019-01-19T22:46:14.044Z,72.75
2019-01-19T22:48:43.540Z,73.25
2019-01-19T22:51:13.548Z,73.34
2019-01-19T22:53:43.008Z,72.94
2019-01-19T22:56:12.905Z,72.63
2019-01-19T22:58:42.423Z,72.31
2019-01-19T23:01:20.356Z,72.41
2019-01-19T23:03:49.862Z,72.29
2019-01-19T23:06:19.354Z,72.52
2019-01-19T23:08:48.849Z,72.74
2019-01-19T23:11:19.072Z,72.45
2019-01-19T23:13:48.603Z,72.43
2019-01-19T23:16:18.466Z,72.29
2019-01-19T23:18:47.994Z,72.26
2019-01-19T23:21:17.485Z,72.60
2019-01-19T23:23:46.993Z,72.83
2019-01-19T23:26:18.338Z,73.13
2019-01-19T23:28:47.807Z,72.83
2019-01-19T23:31:17.385Z,72.81
2019-01-19T23:33:46.977Z,72.43
2019-01-19T23:36:16.484Z,72.64
2019-01-19T23:38:45.966Z,71.96
2019-01-19T23:41:15.517Z,72.36
2019-01-19T23:43:45.445Z,72.36
2019-01-19T23:46:14.977Z,72.30
2019-01-19T23:48:44.495Z,71.80
2019-01-19T23:51:13.999Z,72.47
2019-01-19T23:53:43.675Z,71.88
2019-01-19T23:56:13.375Z,71.81
2019-01-19T23:58:42.886Z,72.55
